Time;durP1;ratioP1;P1;durP2;ratioP2;P2;SDS_P1;SDS_P2;PMS_P1;PMS_P2;Temp;Humidity;BMP_temperature;BMP_pressure;BME280_temperature;BME280_humidity;BME280_pressure;Samples;Min_cycle;Max_cycle;Signal;HPM_P1;HPM_P2
2021/04/02 03:31:35;;;;;;;18.90;12.03;;;;;;;12.10;53.47;99018.22;7809852;23;20227;-80
2021/04/02 03:34:56;;;;;;;23.23;12.33;;;;;;;12.30;52.91;99020.88;6962716;28;20291;-79
2021/04/02 03:38:18;;;;;;;21.30;12.93;;;;;;;12.51;51.65;99004.41;6967611;28;20236;-79
2021/04/02 03:41:39;;;;;;;21.53;13.23;;;;;;;12.30;51.66;99010.91;6959231;28;20235;-79
2021/04/02 03:45:01;;;;;;;21.77;12.17;;;;;;;12.33;51.10;98988.03;6929066;28;20213;-79
2021/04/02 03:48:25;;;;;;;20.80;12.70;;;;;;;12.41;51.36;99031.06;6921844;28;20217;-79
2021/04/02 03:51:47;;;;;;;22.17;14.87;;;;;;;11.73;52.71;99026.94;6922741;28;20227;-79
2021/04/02 03:55:11;;;;;;;27.07;14.73;;;;;;;10.98;55.65;99009.34;6922763;28;20237;-80
2021/04/02 03:58:33;;;;;;;19.60;13.37;;;;;;;11.49;53.59;98948.38;6922310;28;20228;-79
2021/04/02 04:01:54;;;;;;;21.13;12.37;;;;;;;12.05;53.58;99014.47;6923206;28;20226;-79
2021/04/02 04:05:18;;;;;;;22.27;14.67;;;;;;;12.25;52.46;99012.56;6921870;28;20205;-79
2021/04/02 04:08:39;;;;;;;20.50;12.93;;;;;;;11.70;52.60;99005.75;6922310;28;20205;-81
2021/04/02 04:12:02;;;;;;;25.07;14.90;;;;;;;11.12;55.10;99032.63;6922315;28;20228;-79
2021/04/02 04:15:23;;;;;;;22.27;14.23;;;;;;;10.49;57.29;99020.31;6921357;28;20354;-79
2021/04/02 04:18:47;;;;;;;25.07;14.63;;;;;;;11.16;56.50;99017.69;6921337;28;20571;-80
2021/04/02 04:22:09;;;;;;;25.00;13.57;;;;;;;11.42;54.65;99028.53;6921375;28;20225;-79
2021/04/02 04:25:31;;;;;;;21.40;13.70;;;;;;;11.07;54.83;99027.00;6920876;28;20204;-79
2021/04/02 04:28:53;;;;;;;22.87;13.47;;;;;;;10.92;54.81;99021.75;6921267;28;20211;-79
2021/04/02 04:32:16;;;;;;;23.60;13.63;;;;;;;11.33;54.45;99019.78;6920154;28;20275;-79
2021/04/02 04:35:37;;;;;;;21.00;12.53;;;;;;;11.43;54.33;99027.50;6919696;28;20630;-79
2021/04/02 04:39:00;;;;;;;18.60;12.37;;;;;;;11.92;52.95;99033.41;6921859;28;20228;-80
2021/04/02 04:42:23;;;;;;;16.67;11.87;;;;;;;11.82;51.14;99035.69;6923290;28;20748;-79
2021/04/02 04:45:44;;;;;;;21.40;13.23;;;;;;;10.98;53.66;99041.72;6923081;28;20226;-79
2021/04/02 04:49:05;;;;;;;25.10;15.40;;;;;;;10.26;57.01;99032.41;6923314;28;20219;-79
2021/04/02 04:52:30;;;;;;;24.27;13.80;;;;;;;11.10;55.41;99042.78;6922896;28;20605;-79
2021/04/02 04:55:53;;;;;;;20.00;11.90;;;;;;;11.33;53.85;99016.28;6922299;28;20250;-79
2021/04/02 04:59:14;;;;;;;22.53;14.23;;;;;;;10.72;52.73;99010.06;6922372;28;20228;-79
2021/04/02 05:02:37;;;;;;;21.50;13.80;;;;;;;10.89;54.35;99049.16;6921899;28;20776;-79
2021/04/02 05:06:00;;;;;;;20.03;14.67;;;;;;;10.70;54.59;99047.16;6922123;28;20208;-79
2021/04/02 05:09:22;;;;;;;36.73;23.47;;;;;;;11.07;53.98;99048.59;6922209;28;20199;-79
2021/04/02 05:12:44;;;;;;;20.97;15.00;;;;;;;10.90;54.25;99049.97;6922063;28;20221;-79
2021/04/02 05:16:06;;;;;;;17.20;12.47;;;;;;;11.38;52.26;99055.13;6922457;28;20212;-79
2021/04/02 05:19:28;;;;;;;29.47;17.47;;;;;;;11.17;52.17;99039.06;6922376;28;20232;-78
2021/04/02 05:22:49;;;;;;;22.37;13.20;;;;;;;11.09;52.17;99063.53;6922059;28;20231;-79
2021/04/02 05:26:12;;;;;;;18.37;12.67;;;;;;;11.03;53.54;99066.22;6921848;28;20216;-78
2021/04/02 05:29:34;;;;;;;20.70;13.37;;;;;;;10.86;52.81;99040.63;6922562;28;20227;-79
2021/04/02 05:32:55;;;;;;;21.63;13.53;;;;;;;10.63;54.37;99075.97;6928385;28;20578;-78
2021/04/02 05:36:16;;;;;;;19.67;12.70;;;;;;;10.61;55.07;99077.19;6947884;28;20212;-79
2021/04/02 05:39:38;;;;;;;20.83;12.63;;;;;;;10.84;53.52;99070.50;6955164;28;20685;-78
2021/04/02 05:43:02;;;;;;;21.57;14.23;;;;;;;11.24;53.30;99077.72;6955526;28;20223;-79
2021/04/02 05:46:25;;;;;;;18.63;13.33;;;;;;;11.34;52.44;99053.03;6954249;28;20553;-79
2021/04/02 05:49:47;;;;;;;20.17;12.17;;;;;;;11.41;51.81;99070.91;6954077;28;20572;-79
2021/04/02 05:53:09;;;;;;;18.00;12.87;;;;;;;10.98;53.08;99069.50;6956036;28;20227;-81
2021/04/02 05:56:30;;;;;;;21.17;13.07;;;;;;;11.07;53.70;99083.66;6957708;28;20193;-81
2021/04/02 05:59:55;;;;;;;17.30;12.47;;;;;;;11.34;53.96;99063.84;6957428;28;20568;-81
2021/04/02 06:03:18;;;;;;;19.23;12.70;;;;;;;12.17;50.91;99064.16;6955693;28;20233;-80
2021/04/02 06:06:39;;;;;;;20.10;12.37;;;;;;;11.57;51.55;99038.13;6954774;28;20251;-82
2021/04/02 06:10:01;;;;;;;14.63;9.97;;;;;;;12.25;50.83;99067.50;6955034;28;20215;-82
2021/04/02 06:13:22;;;;;;;16.50;10.17;;;;;;;12.26;50.56;99071.00;6954737;28;20292;-83
2021/04/02 06:16:47;;;;;;;15.27;9.97;;;;;;;12.60;50.43;99062.63;6954097;28;20210;-80
2021/04/02 06:20:11;;;;;;;12.90;9.10;;;;;;;13.31;48.92;99064.28;6954563;28;20220;-78
2021/04/02 06:23:33;;;;;;;15.77;8.37;;;;;;;14.21;46.23;99065.56;6954446;28;20835;-79
2021/04/02 06:26:59;;;;;;;10.77;8.13;;;;;;;14.47;45.82;99043.63;6954187;28;20576;-77
2021/04/02 06:30:23;;;;;;;12.43;9.10;;;;;;;14.56;44.52;99069.41;6954375;28;20207;-78
2021/04/02 06:33:50;;;;;;;11.33;8.40;;;;;;;13.91;46.02;99060.97;6949950;28;20209;-78
2021/04/02 06:37:12;;;;;;;10.17;7.50;;;;;;;14.51;44.68;99061.09;6929713;28;20199;-78
2021/04/02 06:40:34;;;;;;;10.67;7.10;;;;;;;14.17;45.58;99069.72;6926819;28;20230;-77
2021/04/02 06:43:57;;;;;;;12.50;7.97;;;;;;;15.18;44.23;99068.28;6926026;28;20554;-79
2021/04/02 06:47:18;;;;;;;9.13;7.50;;;;;;;15.28;43.74;99071.31;6925904;28;20203;-78
2021/04/02 06:50:40;;;;;;;13.03;7.40;;;;;;;15.68;41.63;99069.75;6928775;28;20582;-78
2021/04/02 06:54:03;;;;;;;8.67;6.97;;;;;;;16.23;39.46;99071.19;6943823;28;20215;-79
2021/04/02 06:57:25;;;;;;;8.07;6.23;;;;;;;15.43;40.08;99074.47;6953584;28;20210;-77
2021/04/02 07:00:46;;;;;;;9.53;6.43;;;;;;;15.71;39.30;99048.38;6948128;28;20231;-79
2021/04/02 07:04:07;;;;;;;12.30;7.20;;;;;;;15.08;40.67;99071.53;6955193;28;20566;-79
2021/04/02 07:07:29;;;;;;;11.10;6.90;;;;;;;15.28;40.33;99096.56;6955985;28;20256;-79
2021/04/02 07:10:51;;;;;;;10.53;7.30;;;;;;;15.18;40.87;99077.28;6956535;28;20219;-79
2021/04/02 07:14:13;;;;;;;9.17;6.90;;;;;;;15.73;39.15;99061.72;6961907;28;20269;-80
2021/04/02 07:17:34;;;;;;;9.33;6.93;;;;;;;16.49;37.81;99082.47;6954287;28;20214;-80
2021/04/02 07:20:56;;;;;;;10.97;6.90;;;;;;;17.03;37.61;99082.09;6954706;28;20270;-80
2021/04/02 07:24:19;;;;;;;8.03;6.53;;;;;;;16.48;38.10;99083.53;6955024;28;20218;-80
2021/04/02 07:27:41;;;;;;;9.77;6.97;;;;;;;16.86;37.98;99080.34;6954525;28;20302;-80
2021/04/02 07:31:04;;;;;;;8.40;6.87;;;;;;;16.68;37.62;99075.84;6953584;28;20248;-80
2021/04/02 07:34:25;;;;;;;7.30;6.57;;;;;;;17.08;36.84;99075.91;6954670;28;20218;-80
2021/04/02 07:37:52;;;;;;;10.43;6.83;;;;;;;16.60;36.54;98996.41;6953151;28;20203;-80
2021/04/02 07:41:15;;;;;;;8.33;6.67;;;;;;;16.50;37.14;99058.78;6953471;28;20285;-81
2021/04/02 07:44:37;;;;;;;9.70;6.50;;;;;;;16.79;37.17;99082.34;6954761;28;20722;-81
2021/04/02 07:48:11;;;;;;;8.63;6.93;;;;;;;17.35;36.48;99068.84;6953258;28;20206;-82
2021/04/02 07:51:40;;;;;;;8.50;6.37;;;;;;;17.63;35.42;99082.53;6953633;28;20231;-81
2021/04/02 07:55:08;;;;;;;7.80;6.43;;;;;;;17.91;34.84;99077.91;6951650;28;20201;-81
2021/04/02 07:58:31;;;;;;;11.13;6.77;;;;;;;18.04;34.72;99044.84;6952528;28;20229;-79
2021/04/02 08:02:01;;;;;;;13.27;7.23;;;;;;;17.66;36.18;99082.88;6952417;28;20275;-79
2021/04/02 08:05:22;;;;;;;8.40;7.27;;;;;;;17.87;35.50;99084.91;6951356;28;20211;-80
2021/04/02 08:08:45;;;;;;;8.73;7.80;;;;;;;18.18;34.57;99086.28;6951569;28;20219;-80
2021/04/02 08:12:07;;;;;;;8.17;7.37;;;;;;;18.13;35.12;99078.00;6951394;28;20229;-81
2021/04/02 08:15:28;;;;;;;9.17;7.57;;;;;;;17.20;36.24;99071.25;6956169;28;20201;-81
2021/04/02 08:19:00;;;;;;;10.57;7.37;;;;;;;17.67;35.74;99094.59;6951633;28;20885;-83
2021/04/02 08:22:25;;;;;;;10.03;7.03;;;;;;;16.68;36.79;99083.19;6947315;28;20222;-81
2021/04/02 08:25:46;;;;;;;9.60;7.37;;;;;;;16.27;38.50;99083.25;6924140;28;20401;-82
2021/04/02 08:29:08;;;;;;;9.20;7.80;;;;;;;16.93;38.01;99103.63;6924846;28;20209;-81
2021/04/02 08:32:32;;;;;;;9.03;7.10;;;;;;;17.19;37.59;99096.84;6924140;28;20711;-82
2021/04/02 08:35:54;;;;;;;11.53;7.67;;;;;;;16.68;38.31;99089.44;6927848;28;20262;-82
2021/04/02 08:39:17;;;;;;;9.80;7.37;;;;;;;18.05;36.17;99092.06;6924490;28;20231;-81
2021/04/02 08:42:39;;;;;;;11.93;8.07;;;;;;;18.75;34.52;99093.28;6923399;28;20231;-82
2021/04/02 08:46:00;;;;;;;9.63;7.77;;;;;;;18.48;33.72;99084.94;6923714;28;20216;-81
2021/04/02 08:49:21;;;;;;;9.37;7.40;;;;;;;18.95;34.56;99090.81;6927893;28;20572;-82
2021/04/02 08:52:43;;;;;;;8.03;7.23;;;;;;;18.97;34.94;99097.69;6929980;28;20524;-80
2021/04/02 08:56:05;;;;;;;10.13;7.77;;;;;;;19.10;33.95;99094.59;6923637;28;20212;-80
2021/04/02 08:59:30;;;;;;;8.27;7.47;;;;;;;18.03;35.26;99094.19;6924208;28;20229;-80
2021/04/02 09:02:51;;;;;;;9.50;8.50;;;;;;;17.05;36.66;99088.09;6924743;28;20228;-80
2021/04/02 09:06:13;;;;;;;12.10;8.33;;;;;;;16.48;38.12;99091.72;6926320;28;20218;-81
2021/04/02 09:09:35;;;;;;;9.70;8.70;;;;;;;16.22;38.09;99085.84;6929603;28;20479;-82
2021/04/02 09:12:56;;;;;;;9.80;7.90;;;;;;;16.10;39.29;99085.00;6929918;28;20227;-79
2021/04/02 09:16:20;;;;;;;9.97;8.70;;;;;;;15.75;39.54;99094.94;6930172;28;20271;-82
2021/04/02 09:19:41;;;;;;;12.00;8.53;;;;;;;15.92;39.92;99087.78;6931104;28;20232;-81
2021/04/02 09:23:02;;;;;;;12.27;9.00;;;;;;;16.15;38.85;99060.66;6930438;28;20767;-81
2021/04/02 09:26:25;;;;;;;12.97;8.70;;;;;;;17.41;37.24;99093.28;6947861;28;20214;-80
2021/04/02 09:29:47;;;;;;;10.03;8.73;;;;;;;18.51;34.93;99086.34;6945408;28;20196;-80
2021/04/02 09:33:09;;;;;;;12.33;8.70;;;;;;;17.57;36.21;99089.78;6927626;28;20232;-82
2021/04/02 09:36:32;;;;;;;9.13;8.23;;;;;;;17.05;35.51;98981.06;6949461;28;20210;-82
2021/04/02 09:39:58;;;;;;;9.80;8.90;;;;;;;16.37;37.18;99083.50;6953533;28;20269;-81
2021/04/02 09:43:20;;;;;;;11.07;9.10;;;;;;;15.81;38.91;99077.72;6957111;28;20227;-82
2021/04/02 09:46:42;;;;;;;10.00;8.70;;;;;;;16.67;37.87;99076.06;6954990;28;20200;-81
2021/04/02 09:50:05;;;;;;;9.37;8.37;;;;;;;17.96;36.18;99074.44;6955916;28;20205;-81
2021/04/02 09:53:26;;;;;;;13.27;9.10;;;;;;;17.84;35.32;99093.59;6955769;28;20229;-81
2021/04/02 09:56:48;;;;;;;9.63;8.20;;;;;;;17.35;35.83;99093.38;6955161;28;20212;-81
2021/04/02 10:00:12;;;;;;;10.73;9.30;;;;;;;17.37;35.45;99014.91;6955756;28;20236;-81
2021/04/02 10:03:33;;;;;;;10.33;8.90;;;;;;;19.03;32.87;99082.19;6956192;28;20204;-82
2021/04/02 10:06:55;;;;;;;9.20;8.23;;;;;;;18.56;33.92;99080.94;6955384;28;20220;-81
2021/04/02 10:10:17;;;;;;;9.00;8.10;;;;;;;18.95;33.25;99077.16;6955747;28;20342;-81
2021/04/02 10:13:38;;;;;;;9.23;7.90;;;;;;;18.78;31.16;99066.28;6956082;28;20224;-81
2021/04/02 10:17:00;;;;;;;12.00;10.70;;;;;;;18.69;31.69;99069.69;6953731;28;20660;-82
2021/04/02 10:20:21;;;;;;;104.17;73.80;;;;;;;18.66;32.36;99067.44;6955597;28;20224;-82
2021/04/02 10:23:43;;;;;;;9.37;8.47;;;;;;;19.40;30.61;99056.72;6955766;28;20205;-81
2021/04/02 10:27:05;;;;;;;11.53;10.33;;;;;;;19.37;31.35;99049.06;6955777;28;20233;-82
2021/04/02 10:30:26;;;;;;;8.93;7.47;;;;;;;18.83;31.13;99077.28;6955964;28;20210;-82
2021/04/02 10:33:49;;;;;;;9.40;7.50;;;;;;;18.14;32.80;99064.13;6955682;28;20200;-81
2021/04/02 10:37:12;;;;;;;8.63;7.73;;;;;;;19.02;31.90;99075.06;6955057;28;20665;-82
2021/04/02 10:40:33;;;;;;;8.23;7.10;;;;;;;19.00;30.55;99077.22;6954899;28;20704;-81
2021/04/02 10:43:55;;;;;;;12.67;8.13;;;;;;;17.67;32.91;99032.72;6954273;28;20221;-82
2021/04/02 10:47:16;;;;;;;8.27;7.40;;;;;;;18.60;32.11;99077.47;6955677;28;20196;-81
2021/04/02 10:50:39;;;;;;;7.27;6.57;;;;;;;18.48;31.40;99064.97;6954558;28;20631;-81
2021/04/02 10:54:01;;;;;;;8.00;6.97;;;;;;;18.30;31.33;99044.19;6929081;28;20225;-82
2021/04/02 10:57:22;;;;;;;8.97;6.63;;;;;;;18.96;31.26;99065.97;6925971;28;20297;-81
2021/04/02 11:00:44;;;;;;;8.50;7.65;;;;;;;19.09;29.91;99057.41;6942759;28;20457;-81
2021/04/02 11:04:05;;;;;;;8.07;7.20;;;;;;;18.41;31.96;99053.41;6953481;28;20202;-81
2021/04/02 11:07:27;;;;;;;8.33;7.17;;;;;;;19.04;31.66;99046.41;6953906;28;20214;-82
2021/04/02 11:10:48;;;;;;;8.53;7.50;;;;;;;19.03;30.61;99047.50;6954721;28;20229;-82
2021/04/02 11:14:09;;;;;;;8.50;7.07;;;;;;;18.05;32.03;99045.69;6952581;28;20209;-81
2021/04/02 11:17:31;;;;;;;8.93;8.00;;;;;;;18.74;31.96;99054.19;6925978;28;20260;-80
2021/04/02 11:20:52;;;;;;;8.70;7.17;;;;;;;18.71;30.92;99041.03;6942636;28;20709;-81
2021/04/02 11:24:14;;;;;;;8.77;7.90;;;;;;;19.01;31.42;99040.63;6926988;28;20571;-81
2021/04/02 11:27:35;;;;;;;8.10;7.30;;;;;;;20.20;29.94;99037.59;6926293;28;20243;-81
2021/04/02 11:30:56;;;;;;;7.87;7.10;;;;;;;19.59;29.88;99046.28;6926061;28;20667;-81
2021/04/02 11:34:17;;;;;;;8.17;7.13;;;;;;;19.80;29.82;99040.78;6927070;28;20217;-81
2021/04/02 11:37:38;;;;;;;8.27;7.47;;;;;;;18.95;30.61;99027.97;6927305;28;20210;-81
2021/04/02 11:41:00;;;;;;;9.73;8.27;;;;;;;18.25;32.03;99008.63;6945918;28;20597;-80
2021/04/02 11:44:22;;;;;;;8.33;7.53;;;;;;;18.24;32.38;99026.09;6925440;28;20209;-81
2021/04/02 11:47:43;;;;;;;9.73;7.30;;;;;;;19.31;31.45;99032.84;6926404;28;20634;-82
2021/04/02 11:51:04;;;;;;;8.13;7.33;;;;;;;19.08;32.21;99022.97;6927151;28;20226;-80
2021/04/02 11:54:26;;;;;;;8.70;6.73;;;;;;;19.81;29.81;99025.19;6926896;28;20695;-81
2021/04/02 11:57:48;;;;;;;8.57;6.80;;;;;;;20.16;28.97;99020.88;6925962;28;20693;-80
2021/04/02 12:01:09;;;;;;;7.67;6.70;;;;;;;20.59;29.18;99015.19;6926232;28;20228;-81
2021/04/02 12:04:30;;;;;;;8.40;6.60;;;;;;;20.83;28.39;99012.84;6927227;28;20218;-80
2021/04/02 12:07:52;;;;;;;8.00;7.20;;;;;;;18.99;30.28;99013.53;6926929;28;20211;-80
2021/04/02 12:11:13;;;;;;;7.60;6.60;;;;;;;18.31;31.65;98984.94;6927644;28;20702;-80
2021/04/02 12:14:35;;;;;;;6.30;5.70;;;;;;;19.83;29.73;99012.91;6927413;28;20209;-82
2021/04/02 12:17:56;;;;;;;6.67;5.77;;;;;;;20.53;27.96;99009.94;6926720;28;20211;-81
2021/04/02 12:21:18;;;;;;;5.40;4.80;;;;;;;20.37;28.37;98980.78;6928916;28;20233;-80
2021/04/02 12:24:39;;;;;;;5.57;4.97;;;;;;;21.02;26.42;98985.56;6955407;28;20203;-80
2021/04/02 12:28:00;;;;;;;7.57;5.23;;;;;;;20.25;27.56;98996.59;6954789;28;20232;-80
2021/04/02 12:31:23;;;;;;;6.27;5.67;;;;;;;20.43;27.44;98994.25;6955461;28;20598;-80
2021/04/02 12:34:44;;;;;;;6.03;5.53;;;;;;;20.81;26.76;98993.13;6948066;28;20204;-81
2021/04/02 12:38:09;;;;;;;5.33;4.83;;;;;;;20.51;27.05;98982.81;6934614;28;20204;-81
2021/04/02 12:41:30;;;;;;;6.33;5.33;;;;;;;20.07;27.71;98980.56;6932494;28;20225;-80
2021/04/02 12:44:51;;;;;;;4.70;4.30;;;;;;;20.23;27.87;98994.09;6949134;28;20235;-81
2021/04/02 12:48:13;;;;;;;5.40;4.90;;;;;;;20.09;27.07;98987.44;6952792;28;20237;-81
2021/04/02 12:51:34;;;;;;;6.20;5.30;;;;;;;19.40;28.86;98971.97;6953202;28;20230;-80
2021/04/02 12:54:55;;;;;;;6.03;4.60;;;;;;;19.50;28.14;98983.00;6932927;28;20549;-80
2021/04/02 12:58:17;;;;;;;5.17;4.77;;;;;;;19.45;27.86;98931.00;6923957;28;20250;-82
2021/04/02 13:01:38;;;;;;;4.87;4.47;;;;;;;20.45;27.42;98963.88;6928932;28;20227;-80
2021/04/02 13:05:00;;;;;;;5.20;4.70;;;;;;;20.54;27.24;98962.28;6924668;28;20260;-81
2021/04/02 13:08:21;;;;;;;5.63;5.13;;;;;;;20.60;27.21;98958.47;6926491;28;20706;-81
2021/04/02 13:11:42;;;;;;;4.80;4.40;;;;;;;20.28;27.38;98946.78;6925682;28;20229;-80
2021/04/02 13:15:05;;;;;;;4.63;4.23;;;;;;;20.42;27.11;98947.97;6925080;28;20212;-81
2021/04/02 13:18:26;;;;;;;6.33;4.50;;;;;;;20.45;26.74;98898.13;6925216;28;20201;-81
2021/04/02 13:21:48;;;;;;;5.20;4.70;;;;;;;20.67;26.12;98930.56;6925284;28;20226;-81
2021/04/02 13:25:10;;;;;;;5.33;4.37;;;;;;;20.36;26.86;98927.09;6925691;28;20215;-82
2021/04/02 13:28:32;;;;;;;4.43;4.03;;;;;;;20.30;26.72;98925.44;6926157;28;20206;-79
2021/04/02 13:31:53;;;;;;;4.77;4.37;;;;;;;20.61;26.10;98908.91;6925320;28;20248;-79
2021/04/02 13:35:16;;;;;;;4.50;4.10;;;;;;;20.67;26.46;98927.81;6925240;28;20210;-80
2021/04/02 13:38:38;;;;;;;6.33;4.47;;;;;;;20.75;25.94;98929.22;6930680;28;20214;-79
2021/04/02 13:41:59;;;;;;;4.90;4.40;;;;;;;20.41;26.38;98919.72;6937791;28;20258;-79
2021/04/02 13:45:20;;;;;;;4.00;3.60;;;;;;;20.39;26.88;98915.63;6923836;28;20668;-79
2021/04/02 13:48:42;;;;;;;5.10;4.10;;;;;;;20.45;26.08;98920.06;6925020;28;20204;-79
2021/04/02 13:52:04;;;;;;;3.73;3.40;;;;;;;19.59;27.16;98902.16;6926898;28;20660;-79
2021/04/02 13:55:26;;;;;;;4.00;3.70;;;;;;;19.95;26.92;98900.50;6933518;28;20203;-79
2021/04/02 13:58:47;;;;;;;4.47;4.07;;;;;;;20.40;26.75;98890.69;6957986;28;20214;-79
2021/04/02 14:02:09;;;;;;;4.43;4.03;;;;;;;19.96;26.73;98904.88;6950891;28;20222;-79
2021/04/02 14:05:30;;;;;;;4.40;4.00;;;;;;;20.58;26.50;98903.13;6930419;28;20210;-79
2021/04/02 14:08:51;;;;;;;4.60;4.20;;;;;;;19.98;26.83;98900.00;6930548;28;20265;-79
2021/04/02 14:12:13;;;;;;;4.60;4.23;;;;;;;19.46;27.72;98890.81;6930724;28;20306;-81
2021/04/02 14:15:35;;;;;;;4.57;4.00;;;;;;;20.23;26.84;98895.53;6929452;28;20210;-81
2021/04/02 14:18:58;;;;;;;4.47;3.80;;;;;;;20.45;26.58;98892.66;6935337;28;20253;-79
2021/04/02 14:22:19;;;;;;;4.03;3.63;;;;;;;20.48;26.49;98900.31;6958193;28;20237;-79
2021/04/02 14:25:40;;;;;;;4.97;4.10;;;;;;;20.67;26.52;98890.53;6957107;28;20220;-79
2021/04/02 14:29:03;;;;;;;4.53;4.13;;;;;;;21.00;25.90;98891.00;6956768;28;20582;-79
2021/04/02 14:32:25;;;;;;;4.07;3.67;;;;;;;20.94;26.23;98880.28;6953605;28;20829;-79
2021/04/02 14:35:46;;;;;;;5.80;3.90;;;;;;;20.53;26.49;98887.50;6956442;28;20682;-79
2021/04/02 14:39:07;;;;;;;4.63;3.93;;;;;;;20.43;26.61;98887.44;6938446;28;20227;-78
2021/04/02 14:42:28;;;;;;;3.90;3.50;;;;;;;20.50;26.42;98889.91;6956024;28;20223;-81
2021/04/02 14:45:50;;;;;;;3.90;3.53;;;;;;;19.49;27.89;98887.53;6929603;28;20204;-81
2021/04/02 14:49:12;;;;;;;4.03;3.73;;;;;;;19.17;27.39;98884.75;6929540;28;20191;-81
2021/04/02 14:52:33;;;;;;;3.60;3.30;;;;;;;18.84;28.10;98881.38;6929699;28;20776;-79
2021/04/02 14:55:54;;;;;;;4.40;3.57;;;;;;;19.58;27.52;98895.00;6928461;28;20570;-81
2021/04/02 14:59:15;;;;;;;3.77;3.47;;;;;;;19.92;27.13;98882.69;6955125;28;20253;-80
2021/04/02 15:02:37;;;;;;;3.70;3.40;;;;;;;19.96;26.86;98894.78;6956772;28;20218;-81
2021/04/02 15:05:58;;;;;;;6.63;4.00;;;;;;;19.93;26.98;98876.13;6961320;28;20213;-81
2021/04/02 15:09:19;;;;;;;4.37;3.80;;;;;;;19.48;27.98;98870.31;6953959;28;20202;-81
2021/04/02 15:12:41;;;;;;;3.80;3.50;;;;;;;19.92;27.63;98874.50;6956496;28;20219;-80
2021/04/02 15:16:02;;;;;;;4.13;3.73;;;;;;;19.71;27.45;98860.94;6956804;28;20215;-81
2021/04/02 15:19:24;;;;;;;7.13;3.63;;;;;;;19.37;28.52;98865.00;6956460;28;20231;-81
2021/04/02 15:22:46;;;;;;;6.13;3.53;;;;;;;19.66;28.36;98874.56;6956732;28;20234;-81
2021/04/02 15:26:07;;;;;;;4.03;3.63;;;;;;;19.20;29.19;98876.03;6955725;28;20203;-81
2021/04/02 15:29:28;;;;;;;4.40;4.00;;;;;;;19.88;27.29;98872.56;6956489;28;20229;-80
2021/04/02 15:32:50;;;;;;;4.73;3.97;;;;;;;19.39;28.04;98880.06;6942177;23;20234;-71
2021/04/02 15:36:12;;;;;;;4.27;3.97;;;;;;;18.96;28.87;98828.25;6904211;28;20612;-71
2021/04/02 15:39:34;;;;;;;4.03;3.60;;;;;;;19.26;28.95;98864.09;6915498;28;20232;-73
2021/04/02 15:42:55;;;;;;;4.00;3.60;;;;;;;19.40;28.15;98837.97;6918007;28;20233;-72
2021/04/02 15:46:16;;;;;;;3.80;3.50;;;;;;;18.73;28.87;98852.28;6917775;28;20203;-72
2021/04/02 15:49:38;;;;;;;3.90;3.50;;;;;;;19.35;28.61;98872.66;6917633;28;20225;-70
2021/04/02 15:53:00;;;;;;;5.53;4.47;;;;;;;18.86;28.58;98836.31;6906047;28;20206;-71
2021/04/02 15:56:21;;;;;;;6.80;4.43;;;;;;;19.08;28.31;98869.06;6917078;28;20283;-71
2021/04/02 15:59:42;;;;;;;4.80;3.67;;;;;;;18.90;28.42;98880.34;6916970;28;20304;-71
2021/04/02 16:03:04;;;;;;;4.57;4.17;;;;;;;18.91;28.73;98893.75;6916577;28;20222;-70
2021/04/02 16:06:25;;;;;;;5.83;5.33;;;;;;;18.87;28.29;98839.91;6917243;28;20209;-71
2021/04/02 16:09:47;;;;;;;3.57;3.23;;;;;;;18.55;28.90;98891.69;6915782;28;20218;-70
2021/04/02 16:13:11;;;;;;;5.53;4.10;;;;;;;19.58;27.72;98896.94;6916333;28;20214;-70
2021/04/02 16:16:32;;;;;;;5.20;4.53;;;;;;;19.08;28.31;98893.66;6915639;28;20201;-70
2021/04/02 16:19:54;;;;;;;4.67;4.20;;;;;;;18.76;28.54;98895.50;6916964;28;20324;-71
2021/04/02 16:23:16;;;;;;;5.17;4.00;;;;;;;18.40;28.39;98857.91;6917100;28;20208;-72
2021/04/02 16:26:38;;;;;;;4.43;4.03;;;;;;;18.14;29.32;98874.97;6916712;28;20222;-70
2021/04/02 16:29:59;;;;;;;4.20;3.90;;;;;;;17.68;30.41;98906.19;6917196;28;20204;-71
2021/04/02 16:33:22;;;;;;;5.40;4.07;;;;;;;17.82;30.38;98906.69;6916580;28;20327;-71
2021/04/02 16:36:43;;;;;;;4.70;3.77;;;;;;;18.60;29.63;98919.06;6916079;28;20246;-71
2021/04/02 16:40:06;;;;;;;8.60;4.10;;;;;;;18.54;29.58;98897.41;6916507;28;20228;-70
2021/04/02 16:43:28;;;;;;;5.13;4.20;;;;;;;18.80;29.02;98861.13;6916147;28;20656;-71
2021/04/02 16:46:50;;;;;;;7.10;4.50;;;;;;;18.36;29.55;98901.28;6899485;28;20256;-71
2021/04/02 16:50:13;;;;;;;5.17;4.70;;;;;;;18.70;29.42;98904.72;6912672;28;20211;-71
2021/04/02 16:53:35;;;;;;;5.37;4.50;;;;;;;18.24;30.46;98864.22;6916503;28;20212;-72
2021/04/02 16:56:56;;;;;;;4.33;3.93;;;;;;;17.80;31.37;98865.22;6915751;28;20207;-71
2021/04/02 17:00:21;;;;;;;5.93;4.53;;;;;;;18.65;30.53;98907.38;6916112;28;20231;-71
2021/04/02 17:03:43;;;;;;;6.17;5.30;;;;;;;18.24;31.24;98856.03;6915758;28;20203;-71
2021/04/02 17:07:04;;;;;;;5.70;5.07;;;;;;;18.55;31.58;98907.25;6916029;28;20220;-71
2021/04/02 17:10:25;;;;;;;5.50;5.00;;;;;;;18.68;31.08;98865.88;6916055;28;20204;-72
2021/04/02 17:13:47;;;;;;;5.53;5.03;;;;;;;18.59;31.52;98905.66;6915682;28;20214;-72
2021/04/02 17:17:09;;;;;;;6.10;5.30;;;;;;;18.21;32.04;98917.41;6902315;28;20656;-72
2021/04/02 17:20:30;;;;;;;4.97;4.43;;;;;;;17.80;32.42;98896.03;6902204;28;20232;-72
2021/04/02 17:23:52;;;;;;;5.03;4.53;;;;;;;18.55;31.60;98927.19;6901871;28;20673;-73
2021/04/02 17:27:13;;;;;;;4.43;4.03;;;;;;;19.00;30.75;98935.97;6905941;28;20234;-73
2021/04/02 17:30:34;;;;;;;4.47;4.07;;;;;;;18.47;30.60;98932.25;6920551;28;20737;-71
2021/04/02 17:34:02;;;;;;;4.33;3.50;;;;;;;17.33;32.74;98915.66;6920431;28;20226;-72
2021/04/02 17:37:26;;;;;;;4.50;4.10;;;;;;;17.52;31.93;98873.50;6920360;28;20588;-72
2021/04/02 17:40:48;;;;;;;4.03;3.70;;;;;;;18.09;31.78;98956.75;6920046;28;20479;-72
2021/04/02 17:44:09;;;;;;;3.70;3.40;;;;;;;17.94;31.83;98960.09;6911919;28;20214;-72
2021/04/02 17:47:30;;;;;;;4.30;3.50;;;;;;;17.22;32.80;98954.69;6921475;28;20552;-72
2021/04/02 17:50:52;;;;;;;4.30;3.90;;;;;;;16.83;32.77;98901.91;6922203;28;20692;-72
2021/04/02 17:54:56;;;;;;;5.10;4.60;;;;;;;17.04;32.80;98969.31;6921782;28;20281;-71
2021/04/02 17:58:19;;;;;;;6.30;4.73;;;;;;;17.11;32.55;98970.00;6920526;28;20266;-71
2021/04/02 18:01:40;;;;;;;4.93;4.27;;;;;;;16.77;33.45;98960.06;6921662;28;20224;-73
2021/04/02 18:05:02;;;;;;;5.00;4.50;;;;;;;16.49;33.33;98940.94;6902955;28;20212;-72
2021/04/02 18:08:24;;;;;;;6.27;5.67;;;;;;;16.92;33.41;98993.03;6904196;28;20235;-71
2021/04/02 18:11:45;;;;;;;5.90;5.30;;;;;;;16.57;33.87;98977.84;6904781;28;20274;-72
2021/04/02 18:15:09;;;;;;;5.67;5.10;;;;;;;16.72;33.81;98987.19;6915475;28;20245;-71
2021/04/02 18:18:30;;;;;;;5.80;5.27;;;;;;;16.84;33.67;98995.31;6920264;28;20207;-72
2021/04/02 18:21:52;;;;;;;6.50;5.90;;;;;;;16.89;33.47;98992.69;6920053;28;20220;-71
2021/04/02 18:25:16;;;;;;;5.70;5.20;;;;;;;16.68;33.53;98975.09;6907917;28;20233;-71
2021/04/02 18:28:37;;;;;;;5.90;5.10;;;;;;;16.58;34.00;99002.09;6897017;28;20194;-72
2021/04/02 18:31:59;;;;;;;7.30;5.47;;;;;;;16.81;33.75;99018.41;6919533;28;20227;-72
2021/04/02 18:35:20;;;;;;;5.97;4.60;;;;;;;16.53;34.43;99023.78;6919979;28;20211;-71
2021/04/02 18:38:42;;;;;;;6.87;5.37;;;;;;;15.99;34.87;98956.06;6918501;28;20211;-72
2021/04/02 18:42:08;;;;;;;7.80;5.70;;;;;;;16.38;34.23;99003.50;6919303;28;20269;-69
2021/04/02 18:45:30;;;;;;;9.23;7.60;;;;;;;16.52;34.42;99010.41;6921331;28;20211;-74
2021/04/02 18:48:55;;;;;;;24.37;15.63;;;;;;;16.37;34.17;99019.00;6920841;28;20208;-71
2021/04/02 18:52:17;;;;;;;6.23;5.63;;;;;;;16.33;34.61;99033.34;6921436;28;20808;-71
2021/04/02 18:55:38;;;;;;;6.33;5.37;;;;;;;16.28;34.49;99049.53;6915132;28;20556;-71
2021/04/02 18:59:01;;;;;;;6.20;5.60;;;;;;;16.12;33.92;99020.28;6921180;28;20211;-70
2021/04/02 19:02:22;;;;;;;6.47;5.77;;;;;;;16.22;34.04;99045.03;6908651;28;20546;-71
2021/04/02 19:05:44;;;;;;;6.40;5.50;;;;;;;15.67;34.70;99051.75;6892998;28;20208;-72
2021/04/02 19:09:06;;;;;;;5.80;5.20;;;;;;;15.94;33.96;99044.88;6916685;28;20204;-71
2021/04/02 19:12:27;;;;;;;7.17;5.47;;;;;;;15.68;34.29;99045.28;6912608;28;20210;-69
2021/04/02 19:15:50;;;;;;;5.67;5.00;;;;;;;15.77;33.77;99063.75;6918395;28;20208;-71